BVI weather

Birdsville Airport
Queensland, Australia

Public forecast

Using degrees Celsius for public forecast. Weather courtesy of forecast.io.

METAR (pilot weather report)

Retrieved 2019/03/25 20:00 UTC (16 minutes ago):

YBDV 252000Z AUTO 10007KT //// // ////// 23/23 Q1014

TAF (pilot weather forecast)

Closest forecast is Alice Springs Airport, 322.1 nm (596.6 km) WNW. Retrieved 2019/03/25 18:00 UTC (2 hours ago):

TAF YBAS 251659Z 2518/2618 15014KT 9999 BKN020 FM260000 14018G28KT 9999 SCT030 FM260800 14010KT CAVOK